• Join FlightAware (Why Join?)
  • Login
  • US Flag 
01:44AM EDT


 

Airport Tracker/Info


-or-


 

Live Flight TrackerFlight Track Log ✈ AWE390 ✈ 04-May-2013 ✈ KLAS - KCLT

Flight Track Log - Related Links

Times and Time Zones

All times are in EDT time to prevent confusion due to time zone crossing. See the AWE390 flight status page for this flight to view local times or setup timezone preferences in your user account.

Time Position Orientation Groundspeed Altitude Reporting Facility
EDT Latitude Longitude Course Direction KTS MPH feet Rate Location/Type
02:08AM 36.0770 -115.1670 256° West 182 209 3,200  Level FlightAware
02:08AM 36.0770 -115.1930 270° West 189 217 4,100 1,380 Climbing FlightAware
02:09AM 36.0760 -115.2280 268° West 217 250 4,500 660 Climbing FlightAware
02:09AM 36.0720 -115.2460 255° West 235 270 4,600 720 Climbing FlightAware
02:09AM 36.0640 -115.2570 228° Southwest 243 280 4,800 1,680 Climbing FlightAware
02:10AM 36.0500 -115.2650 205° Southwest 247 284 5,300 2,100 Climbing FlightAware
02:10AM 36.0170 -115.2800 200° South 244 281 6,400 2,400 Climbing FlightAware
02:10AM 35.9890 -115.2920 199° South 245 282 7,500 2,400 Climbing FlightAware
02:11AM 35.9780 -115.2940 188° South 250 288 7,800 1,800 Climbing FlightAware
02:11AM 35.9570 -115.2860 163° South 258 297 8,400 1,860 Climbing FlightAware
02:11AM 35.9440 -115.2710 137° Southeast 269 310 8,900 2,160 Climbing FlightAware
02:11AM 35.9390 -115.2460 104° East 277 319 9,500 1,920 Climbing FlightAware
02:12AM 35.9390 -115.1820 90° East 294 338 10,700 1,380 Climbing FlightAware
02:13AM 35.9380 -115.1110 91° East 328 377 11,400 960 Climbing FlightAware
02:14AM 35.9370 -115.0240 91° East 363 418 12,100 1,320 Climbing FlightAware
02:14AM 35.9370 -114.9400 90° East 374 430 13,300 1,800 Climbing FlightAware
02:15AM 35.9360 -114.8390 91° East 385 443 14,700 1,860 Climbing FlightAware
02:16AM 35.9350 -114.7500 91° East 387 445 16,000 1,500 Climbing FlightAware
02:18AM 35.9310 -114.4250 91° East 423 487 19,400 1,320 Climbing FlightAware
02:19AM 35.9300 -114.3160 91° East 438 504 20,200 1,020 Climbing FlightAware
02:19AM 35.9280 -114.2120 91° East 451 519 20,900 960 Climbing FlightAware
02:20AM 35.9270 -114.0960 91° East 461 531 21,600 960 Climbing FlightAware
02:21AM 35.9250 -113.9910 91° East 468 539 22,300 1,020 Climbing FlightAware
02:22AM 35.9200 -113.8840 93° East 469 540 23,000 960 Climbing FlightAware
02:22AM 35.9020 -113.7630 100° East 474 545 23,700 960 Climbing FlightAware
02:23AM 35.8850 -113.6550 101° East 481 554 24,400 1,020 Climbing FlightAware
02:24AM 35.8850 -113.5450 90° East 488 562 25,100 960 Climbing FlightAware
02:24AM 35.8950 -113.4220 84° East 489 563 25,800 900 Climbing FlightAware
02:25AM 35.9030 -113.3130 85° East 491 565 26,400 840 Climbing FlightAware
02:26AM 35.9130 -113.1830 85° East 496 571 27,000 720 Climbing FlightAware
02:26AM 35.9220 -113.0720 84° East 499 574 27,500 720 Climbing FlightAware
02:27AM 35.9310 -112.9480 85° East 501 577 28,100 720 Climbing FlightAware
02:28AM 35.9400 -112.8300 85° East 503 579 28,600 720 Climbing FlightAware
02:29AM 35.9480 -112.7180 85° East 501 577 29,100 720 Climbing FlightAware
02:29AM 35.9570 -112.5860 85° East 499 574 29,700 840 Climbing FlightAware
02:30AM 35.9650 -112.4780 85° East 500 575 30,300 780 Climbing FlightAware
02:31AM 35.9730 -112.3580 85° East 502 578 30,800 660 Climbing FlightAware
02:31AM 35.9820 -112.2370 85° East 503 579 31,300 660 Climbing FlightAware
02:32AM 35.9890 -112.1250 86° East 501 577 31,800 840 Climbing FlightAware
02:33AM 35.9990 -111.9890 85° East 496 571 32,500 720 Climbing FlightAware
02:33AM 36.0060 -111.8760 86° East 492 566 32,900 360 Climbing FlightAware
02:34AM 36.0130 -111.7640 86° East 498 573 33,000 60 Climbing FlightAware
02:35AM 36.0220 -111.6360 85° East 508 585 33,000  Level FlightAware
02:36AM 36.0300 -111.5040 86° East 510 587 33,000  Level FlightAware
02:36AM 36.0370 -111.3860 86° East 511 588 33,000  Level FlightAware
02:37AM 36.0440 -111.2720 86° East 513 590 33,000 60 Level FlightAware
02:38AM 36.0520 -111.1420 86° East 516 594 33,100  Climbing FlightAware
02:38AM 36.0590 -111.0230 86° East 512 589 33,000 -120 Descending FlightAware
02:39AM 36.0660 -110.9070 86° East 508 585 33,000  Level FlightAware
02:40AM 36.0730 -110.7920 86° East 509 586 33,000  Level FlightAware
02:40AM 36.0800 -110.6590 86° East 511 588 33,000  Level FlightAware
02:41AM 36.0870 -110.5300 86° East 512 589 33,000 60 Level FlightAware
02:42AM 36.0930 -110.4140 86° East 513 590 33,100  Climbing FlightAware
02:43AM 36.1000 -110.2870 86° East 512 589 33,000 -120 Descending FlightAware
02:43AM 36.1070 -110.1620 86° East 514 592 33,000  Level FlightAware
02:44AM 36.1150 -110.0140 86° East 512 589 33,000  Level FlightAware
02:45AM 36.1200 -109.9140 86° East 512 589 33,000  Level FlightAware
02:46AM 36.1260 -109.8150 86° East 512 589 33,000  Level FlightAware
02:46AM 36.1310 -109.7150 86° East 512 589 33,000  Level FlightAware
02:47AM 36.1380 -109.5910 86° East 512 589 33,000  Level FlightAware
02:48AM 36.1440 -109.4920 86° East 512 589 33,000  Level FlightAware
02:48AM 36.1500 -109.3920 86° East 512 589 33,000  Level FlightAware
02:49AM 36.1550 -109.2930 86° East 512 589 33,000  Level FlightAware
02:50AM 36.1610 -109.1930 86° East 512 589 33,000  Level FlightAware
02:50AM 36.1660 -109.0940 86° East 512 589 33,000  Level FlightAware
02:51AM 36.1730 -108.9690 86° East 512 589 33,000  Level FlightAware
02:52AM 36.1790 -108.8700 86° East 512 589 33,000  Level FlightAware
02:53AM 36.1850 -108.7700 86° East 512 589 33,000  Level FlightAware
02:53AM 36.1830 -108.4300 90° East 510 587 33,000  Level FlightAware
02:54AM 36.1870 -108.3100 88° East 512 589 33,000  Level FlightAware
02:55AM 36.1900 -108.2180 88° East 509 586 33,000  Level FlightAware
02:55AM 36.1960 -108.0970 86° East 509 586 33,000  Level FlightAware
02:56AM 36.2010 -107.9730 87° East 509 586 33,000  Level FlightAware
02:57AM 36.2040 -107.8190 89° East 508 585 33,000  Level FlightAware
02:57AM 36.2070 -107.7040 88° East 508 585 33,000  Level FlightAware
02:58AM 36.2110 -107.5760 88° East 507 583 33,000  Level FlightAware
02:59AM 36.2150 -107.4570 88° East 511 588 33,000  Level FlightAware
03:00AM 36.2180 -107.3240 88° East 511 588 33,000  Level FlightAware
03:01AM 36.2230 -107.1710 88° East 512 589 33,000  Level FlightAware
03:01AM 36.2260 -107.0290 88° East 512 589 33,100 60 Climbing FlightAware
03:02AM 36.2290 -106.9290 88° East 512 589 33,100 -120 Level FlightAware
03:03AM 36.2320 -106.7800 89° East 514 592 33,000 -60 Descending FlightAware
03:04AM 36.2370 -106.6000 88° East 515 593 33,000  Level FlightAware
03:05AM 36.2400 -106.4640 88° East 515 593 33,000  Level FlightAware
03:05AM 36.2410 -106.3700 89° East 516 594 33,000  Level FlightAware
03:06AM 36.2450 -106.1850 88° East 516 594 33,000  Level FlightAware
03:07AM 36.2480 -106.0850 88° East 516 594 33,000  Level FlightAware
03:07AM 36.2510 -105.9840 88° East 516 594 33,000  Level FlightAware
03:08AM 36.2540 -105.8840 88° East 516 594 33,000  Level FlightAware
03:09AM 36.2570 -105.7580 88° East 516 594 33,000  Level FlightAware
03:10AM 36.2600 -105.6570 88° East 516 594 33,000  Level FlightAware
03:10AM 36.2630 -105.5570 88° East 516 594 33,000  Level FlightAware
03:11AM 36.2660 -105.4560 88° East 516 594 33,000  Level FlightAware
03:12AM 36.2690 -105.3550 88° East 516 594 33,000  Level FlightAware
03:12AM 36.2720 -105.2300 88° East 516 594 33,000  Level FlightAware
03:13AM 36.2750 -105.1290 88° East 516 594 33,000  Level FlightAware
03:14AM 36.2780 -105.0280 88° East 516 594 33,000  Level FlightAware
03:14AM 36.2810 -104.9280 88° East 516 594 33,000  Level FlightAware
03:15AM 36.2830 -104.8270 89° East 516 594 33,000  Level FlightAware
03:16AM 36.2639 -104.4856 89° East 502 578 33,000  Level Albuquerque Center
03:17AM 36.2633 -104.3100 90° East 503 579 33,000  Level Albuquerque Center
03:18AM 36.2644 -104.1319 90° East 507 583 33,000  Level Albuquerque Center
03:19AM 36.2656 -103.9544 90° East 509 586 33,000  Level Albuquerque Center
03:20AM 36.2650 -103.7756 90° East 511 588 33,000  Level Albuquerque Center
03:21AM 36.2647 -103.5947 90° East 516 594 33,100  Climbing Albuquerque Center
03:22AM 36.2633 -103.4150 90° East 517 595 33,100 -60 Level Albuquerque Center
03:23AM 36.2628 -103.2356 90° East 516 594 33,000 -60 Descending Albuquerque Center
03:24AM 36.2614 -103.0569 90° East 515 593 33,000  Level Albuquerque Center
03:25AM 36.2594 -102.8794 91° East 511 588 33,000  Level Albuquerque Center
03:26AM 36.2572 -102.7233 91° East 508 585 33,000  Level Albuquerque Center
03:27AM 36.2553 -102.5494 91° East 505 581 33,000  Level Albuquerque Center
03:28AM 36.2539 -102.3736 91° East 508 585 33,000  Level Albuquerque Center
03:29AM 36.2508 -102.2000 91° East 505 581 33,000  Level Albuquerque Center
03:30AM 36.2483 -102.0231 91° East 510 587 33,000  Level Albuquerque Center
03:31AM 36.2453 -101.8475 91° East 510 587 33,100  Climbing Albuquerque Center
03:32AM 36.2419 -101.6731 91° East 508 585 33,100 -60 Level Albuquerque Center
03:33AM 36.2383 -101.4994 91° East 505 581 33,000 -60 Descending Albuquerque Center
03:34AM 36.2350 -101.3233 91° East 507 583 33,000  Level Albuquerque Center
03:35AM 36.2308 -101.1467 92° East 510 587 33,000  Level Albuquerque Center
03:36AM 36.2256 -100.9700 92° East 511 588 33,000  Level Albuquerque Center
03:37AM 36.2217 -100.7936 92° East 512 589 33,000  Level Albuquerque Center
03:38AM 36.2164 -100.6189 92° East 510 587 33,000  Level Albuquerque Center
03:39AM 36.2119 -100.4433 92° East 509 586 33,000  Level Albuquerque Center
03:40AM 36.2042 -100.2144 92° East 507 583 33,000  Level Kansas City Center
03:41AM 36.1989 -100.0603 92° East 507 583 33,000  Level Kansas City Center
03:42AM 36.1942 -99.8861 92° East 507 583 33,000  Level Kansas City Center
03:43AM 36.1867 -99.6867 93° East 508 585 33,000  Level Kansas City Center
03:44AM 36.1800 -99.5206 93° East 507 583 33,000  Level Kansas City Center
03:45AM 36.1725 -99.3433 93° East 509 586 33,000  Level Kansas City Center
03:46AM 36.1664 -99.1689 92° East 509 586 33,000  Level Kansas City Center
03:52AM 36.1250 -98.2120 92° East 508 585 33,000  Level FlightAware
03:53AM 36.1170 -98.0620 94° East 507 583 33,000  Level FlightAware
03:53AM 36.1120 -97.9460 93° East 504 580 33,000  Level FlightAware
03:54AM 36.1070 -97.8380 93° East 500 575 33,000  Level FlightAware
03:55AM 36.1020 -97.7410 94° East 500 575 33,000  Level FlightAware
03:55AM 36.0970 -97.6190 93° East 500 575 33,000  Level FlightAware
03:56AM 36.0850 -97.4290 94° East 499 574 33,000  Level FlightAware
03:57AM 36.0780 -97.2900 94° East 499 574 33,000  Level FlightAware
03:58AM 36.0720 -97.1690 93° East 499 574 33,000  Level FlightAware
03:59AM 36.0590 -96.9820 95° East 494 568 33,000  Level FlightAware
04:00AM 36.0530 -96.8800 94° East 492 566 33,000  Level FlightAware
04:00AM 36.0470 -96.7830 94° East 483 556 33,000  Level FlightAware
04:01AM 36.0400 -96.6630 94° East 479 551 33,000  Level FlightAware
04:02AM 36.0320 -96.5330 94° East 480 552 33,000  Level FlightAware
04:02AM 36.0240 -96.4050 94° East 481 554 33,000  Level FlightAware
04:03AM 36.0150 -96.2700 95° East 485 558 33,000  Level FlightAware
04:04AM 36.0070 -96.1520 95° East 488 562 33,000  Level FlightAware
04:05AM 35.9980 -96.0020 94° East 488 562 33,000  Level FlightAware
04:06AM 35.9930 -95.9080 94° East 488 562 33,000  Level FlightAware
04:06AM 35.9870 -95.8130 94° East 488 562 33,000  Level FlightAware
04:07AM 35.9810 -95.6950 94° East 488 562 33,000  Level FlightAware
04:08AM 35.9750 -95.6000 94° East 488 562 33,000  Level FlightAware
04:08AM 35.9700 -95.5050 94° East 488 562 33,000  Level FlightAware
04:09AM 35.9650 -95.4110 94° East 488 562 33,000  Level FlightAware
04:10AM 35.9590 -95.3160 94° East 488 562 33,000  Level FlightAware
04:11AM 35.9530 -95.1980 94° East 488 562 33,000  Level FlightAware
04:11AM 35.9470 -95.1030 94° East 488 562 33,000  Level FlightAware
04:12AM 35.9420 -95.0090 94° East 488 562 33,000  Level FlightAware
04:13AM 35.9360 -94.9140 94° East 488 562 33,000  Level FlightAware
04:13AM 35.9310 -94.8200 94° East 488 562 33,000  Level FlightAware
04:14AM 35.8890 -94.5130 99° East 490 564 33,000  Level FlightAware
04:15AM 35.8810 -94.3990 95° East 490 564 33,000  Level FlightAware
04:15AM 35.8720 -94.2810 95° East 490 564 33,000  Level FlightAware
04:16AM 35.8660 -94.1860 94° East 490 564 33,000  Level FlightAware
04:17AM 35.8590 -94.0910 95° East 490 564 33,000  Level FlightAware
04:17AM 35.8520 -93.9970 95° East 490 564 33,000  Level FlightAware
04:18AM 35.8440 -93.8780 95° East 490 564 33,000  Level FlightAware
04:19AM 35.8370 -93.7840 95° East 490 564 33,000  Level FlightAware
04:20AM 35.8300 -93.6890 95° East 490 564 33,000  Level FlightAware
04:20AM 35.8240 -93.5940 94° East 490 564 33,000  Level FlightAware
04:21AM 35.8170 -93.4990 95° East 490 564 33,000  Level FlightAware
04:22AM 35.8080 -93.3810 95° East 490 564 33,000  Level FlightAware
04:22AM 35.8020 -93.2860 94° East 490 564 33,000  Level FlightAware
04:23AM 35.7950 -93.1920 95° East 490 564 33,000  Level FlightAware
04:24AM 35.7880 -93.0970 95° East 490 564 33,000  Level FlightAware
04:24AM 35.7475 -92.8739 95° East 470 541 33,000  Level Memphis Center
04:25AM 35.7297 -92.7122 98° East 470 541 33,000  Level Memphis Center
04:26AM 35.7161 -92.5508 96° East 470 541 33,000  Level Memphis Center
04:27AM 35.7000 -92.3867 97° East 470 541 33,000  Level Memphis Center
04:28AM 35.6839 -92.2306 97° East 470 541 33,000  Level Memphis Center
04:29AM 35.6694 -92.0717 96° East 464 534 33,000  Level Memphis Center
04:30AM 35.6528 -91.9156 97° East 464 534 33,000  Level Memphis Center
04:31AM 35.6378 -91.7569 97° East 464 534 33,000  Level Memphis Center
04:32AM 35.6208 -91.5983 97° East 469 540 33,000  Level Memphis Center
04:33AM 35.6056 -91.4397 97° East 469 540 33,000  Level Memphis Center
04:34AM 35.5881 -91.2633 97° East 470 541 33,000  Level Memphis Center
04:35AM 35.5703 -91.1203 99° East 470 541 33,000  Level Memphis Center
04:36AM 35.5525 -90.9592 98° East 476 548 33,000  Level Memphis Center
04:37AM 35.5364 -90.7933 97° East 485 558 33,000  Level Memphis Center
04:38AM 35.5161 -90.6275 98° East 485 558 33,100  Climbing Memphis Center
04:39AM 35.4997 -90.4667 97° East 485 558 33,000 -60 Descending Memphis Center
04:40AM 35.4789 -90.2883 98° East 485 558 33,000  Level Memphis Center
04:41AM 35.4597 -90.1225 98° East 480 552 33,000  Level Memphis Center
04:42AM 35.4406 -89.9594 98° East 485 558 33,000  Level Memphis Center
04:43AM 35.4211 -89.7939 98° East 485 558 33,000  Level Memphis Center
04:44AM 35.4014 -89.6311 98° East 480 552 33,000  Level Memphis Center
04:45AM 35.3817 -89.4683 98° East 486 559 33,000  Level Memphis Center
04:46AM 35.3617 -89.3081 99° East 480 552 33,000  Level Memphis Center
04:47AM 35.3436 -89.1633 99° East 480 552 33,000  Level Memphis Center
04:48AM 35.3231 -88.9981 99° East 485 558 33,000  Level Memphis Center
04:49AM 35.3253 -88.8300 89° East 485 558 33,100  Climbing Memphis Center
04:50AM 35.3378 -88.6619 85° East 485 558 33,000 -60 Descending Memphis Center
04:51AM 35.3481 -88.4964 86° East 485 558 33,000  Level Memphis Center
04:56AM 35.4020 -87.6330 86° East 478 550 33,000  Level FlightAware
04:57AM 35.4090 -87.5110 86° East 482 555 33,000  Level FlightAware
04:58AM 35.4160 -87.4020 85° East 485 558 33,000 60 Level FlightAware
04:58AM 35.4230 -87.2770 86° East 487 560 33,100  Climbing FlightAware
04:59AM 35.4290 -87.1670 86° East 478 550 33,000 -180 Descending FlightAware
04:59AM 35.4297 -87.1507 87° East 477 549 33,000  Level FlightAware ADS-B
05:00AM 35.4343 -87.0687 86° East 473 544 33,000  Level FlightAware ADS-B
05:00AM 35.4391 -86.9827 86° East 474 545 33,000  Level FlightAware ADS-B
05:01AM 35.4435 -86.9002 86° East 477 549 33,000  Level FlightAware ADS-B
05:01AM 35.4479 -86.8169 86° East 473 544 33,000  Level FlightAware ADS-B
05:02AM 35.4521 -86.7375 86° East 465 535 33,000  Level FlightAware ADS-B
05:02AM 35.4560 -86.6587 87° East 464 534 33,000  Level FlightAware ADS-B
05:03AM 35.4603 -86.5762 86° East 464 534 33,000  Level FlightAware ADS-B
05:03AM 35.4648 -86.4842 87° East 466 536 33,000  Level FlightAware ADS-B
05:04AM 35.4690 -86.3980 87° East 467 537 33,000 120 Level FlightAware
05:04AM 35.4704 -86.3716 86° East 467 537 33,100 120 Climbing FlightAware ADS-B
05:05AM 35.4743 -86.2918 87° East 468 539 33,100  Level FlightAware ADS-B
05:05AM 35.4781 -86.2119 87° East 468 539 33,100  Level FlightAware ADS-B
05:06AM 35.4818 -86.1319 87° East 467 537 33,100 -120 Level FlightAware ADS-B
05:06AM 35.4856 -86.0519 87° East 467 537 33,000 -120 Descending FlightAware ADS-B
05:07AM 35.4911 -85.9321 87° East 467 537 33,000  Level FlightAware ADS-B
05:07AM 35.4947 -85.8523 87° East 466 536 33,000  Level FlightAware ADS-B
05:08AM 35.4982 -85.7710 87° East 468 539 33,000  Level FlightAware ADS-B
05:08AM 35.5018 -85.6903 87° East 468 539 33,000  Level FlightAware ADS-B
05:09AM 35.5053 -85.6087 87° East 472 543 33,000  Level FlightAware ADS-B
05:09AM 35.5090 -85.5203 87° East 476 548 33,000  Level FlightAware ADS-B
05:10AM 35.5124 -85.4358 87° East 480 552 33,000  Level FlightAware ADS-B
05:11AM 35.5160 -85.3580 87° East 479 551 33,000  Level FlightAware
05:11AM 35.5168 -85.3288 88° East 483 556 33,000 120 Level FlightAware ADS-B
05:11AM 35.5201 -85.2444 87° East 486 559 33,100 60 Climbing FlightAware ADS-B
05:12AM 35.5234 -85.1613 87° East 488 562 33,100  Level FlightAware ADS-B
05:12AM 35.5267 -85.0773 87° East 488 562 33,100  Level FlightAware ADS-B
05:13AM 35.5299 -84.9936 87° East 486 559 33,100  Level FlightAware ADS-B
05:13AM 35.5329 -84.9107 87° East 485 558 33,100  Level FlightAware ADS-B
05:14AM 35.5359 -84.8278 87° East 483 556 33,100 -120 Level FlightAware ADS-B
05:14AM 35.5389 -84.7450 87° East 482 555 33,000 -120 Descending FlightAware ADS-B
05:15AM 35.5418 -84.6623 88° East 481 554 33,000  Level FlightAware ADS-B
05:15AM 35.5447 -84.5804 87° East 481 554 33,000  Level FlightAware ADS-B
05:16AM 35.5474 -84.4987 88° East 483 556 33,000  Level FlightAware ADS-B
05:16AM 35.5501 -84.4160 88° East 483 556 33,000  Level FlightAware ADS-B
05:17AM 35.5528 -84.3312 88° East 485 558 33,000  Level FlightAware ADS-B
05:17AM 35.5555 -84.2463 88° East 488 562 33,000  Level FlightAware ADS-B
05:18AM 35.5580 -84.1628 88° East 490 564 33,000  Level FlightAware ADS-B
05:18AM 35.5606 -84.0785 88° East 493 567 33,000 60 Level FlightAware ADS-B
05:19AM 35.5630 -83.9943 88° East 493 567 33,100 60 Climbing FlightAware ADS-B
05:19AM 35.5654 -83.9079 88° East 494 568 33,100 -120 Level FlightAware ADS-B
05:20AM 35.5679 -83.8218 88° East 495 570 33,000  Descending FlightAware ADS-B
05:20AM 35.5702 -83.7370 88° East 495 570 33,100 60 Climbing FlightAware ADS-B
05:21AM 35.5724 -83.6518 88° East 495 570 33,100 -120 Level FlightAware ADS-B
05:21AM 35.5746 -83.5665 88° East 496 571 33,000 -120 Descending FlightAware ADS-B
05:22AM 35.5768 -83.4816 88° East 494 568 33,000 60 Level FlightAware ADS-B
05:22AM 35.5789 -83.3962 88° East 491 565 33,100  Climbing FlightAware ADS-B
05:23AM 35.5809 -83.3100 88° East 489 563 33,000 -120 Descending FlightAware ADS-B
05:23AM 35.5828 -83.2246 88° East 484 557 33,000  Level FlightAware ADS-B
05:24AM 35.5847 -83.1419 88° East 480 552 33,000 -120 Level FlightAware ADS-B
05:24AM 35.5864 -83.0600 89° East 479 551 32,900 -1,080 Descending FlightAware ADS-B
05:25AM 35.5882 -82.9730 89° East 482 555 31,900 -2,040 Descending FlightAware ADS-B
05:25AM 35.5899 -82.8922 88° East 473 544 30,800 -2,400 Descending FlightAware ADS-B
05:26AM 35.5888 -82.8553 92° East 467 537 30,200 -2,640 Descending FlightAware ADS-B
05:26AM 35.5839 -82.8113 98° East 459 528 29,500 -2,220 Descending FlightAware ADS-B
05:26AM 35.5730 -82.7590 104° East 447 514 28,800 -2,340 Descending FlightAware ADS-B
05:27AM 35.5523 -82.6879 110° East 439 505 27,500 -2,460 Descending FlightAware ADS-B
05:27AM 35.5318 -82.6179 110° East 435 501 26,300 -2,400 Descending FlightAware ADS-B
05:28AM 35.5114 -82.5481 110° East 429 494 25,100 -2,340 Descending FlightAware ADS-B
05:28AM 35.4915 -82.4796 110° East 421 484 24,000 -1,920 Descending FlightAware ADS-B
05:29AM 35.4720 -82.4132 110° East 406 467 23,200 -1,500 Descending FlightAware ADS-B
05:29AM 35.4556 -82.3575 110° East 389 448 22,600 -1,440 Descending FlightAware ADS-B
05:29AM 35.4472 -82.3335 113° Southeast 380 437 22,300 -1,620 Descending FlightAware ADS-B
05:30AM 35.4385 -82.3139 119° Southeast 374 430 22,000 -1,740 Descending FlightAware ADS-B
05:30AM 35.4296 -82.2967 122° Southeast 368 423 21,700 -2,220 Descending FlightAware ADS-B
05:30AM 35.4170 -82.2763 127° Southeast 364 419 21,200 -2,340 Descending FlightAware ADS-B
05:30AM 35.3830 -82.2299 132° Southeast 362 417 20,100 -2,040 Descending FlightAware ADS-B
05:31AM 35.3197 -82.1450 132° Southeast 370 426 18,000 -2,040 Descending Atlanta Center
05:32AM 35.2964 -82.1200 139° Southeast 358 412 17,400 -1,860 Descending Atlanta Center
05:32AM 35.2772 -82.0900 128° Southeast 355 409 17,000 -1,500 Descending Atlanta Center
05:32AM 35.2475 -82.0550 136° Southeast 349 402 16,300 -1,800 Descending Atlanta Center
05:33AM 35.2111 -82.0078 133° Southeast 341 392 15,200 -1,320 Descending Atlanta Center
05:33AM 35.1814 -81.9728 136° Southeast 342 394 15,000 -1,020 Descending Atlanta Center
05:34AM 35.1472 -81.9331 136° Southeast 319 367 14,200 -1,740 Descending Atlanta Center
05:34AM 35.1217 -81.8981 132° Southeast 321 369 13,300 -1,620 Descending Atlanta Center
05:35AM 35.0875 -81.8558 135° Southeast 309 356 12,600 -1,500 Descending Atlanta Center
05:35AM 35.0597 -81.8236 136° Southeast 315 362 11,800 -1,620 Descending Atlanta Center
05:36AM 35.0214 -81.7789 136° Southeast 303 349 11,000 -840 Descending Atlanta Center
05:36AM 35.0022 -81.7517 131° Southeast 303 349 11,000  Level Atlanta Center
05:37AM 34.9969 -81.6908 96° East 288 331 11,000  Level Atlanta Center
05:37AM 35.0003 -81.6553 83° East 262 302 11,000 -240 Level Atlanta Center
05:38AM 35.0119 -81.6042 74° East 296 341 10,800 -900 Descending Atlanta Center
05:38AM 35.0172 -81.5583 82° East 262 302 10,100 -1,200 Descending Atlanta Center
05:39AM 35.0264 -81.4972 80° East 291 335 9,500 -1,140 Descending Atlanta Center
05:39AM 35.0319 -81.4617 79° East 281 323 9,000 -1,200 Descending Atlanta Center
05:40AM 35.0392 -81.4081 81° East 274 315 8,300 -1,320 Descending Atlanta Center
05:40AM 35.0467 -81.3750 75° East 269 310 7,700 -1,800 Descending Atlanta Center
05:41AM 35.0539 -81.3214 81° East 252 290 6,500 -2,040 Descending Atlanta Center
05:41AM 35.0575 -81.2908 82° East 255 293 5,700 -1,980 Descending Atlanta Center
05:42AM 35.0647 -81.2425 80° East 238 274 4,500 -1,080 Descending Atlanta Center
05:43AM 35.0753 -81.1633 81° East 227 261 4,000 -300 Descending Atlanta Center
05:44AM 35.0969 -81.1092 64° Northeast 182 209 4,000 -480 Level Atlanta Center
05:45AM 35.1314 -81.0597 50° Northeast 165 190 3,100 -900 Descending Atlanta Center
05:46AM 35.1636 -81.0181 47° Northeast 142 163 2,100 -840 Descending Atlanta Center
05:47AM 35.1839 -80.9867 52° Northeast 131 151 1,500 -780 Descending Atlanta Center